createdAt,value
2022-08-08T00:02:30.893Z,14.42
2022-08-08T00:07:34.456Z,14.29
2022-08-08T00:12:56.274Z,14.38
2022-08-08T00:18:04.705Z,14.43
2022-08-08T00:23:14.767Z,14.28
2022-08-08T00:28:35.622Z,14.18
2022-08-08T00:34:18.035Z,14.24
2022-08-08T00:39:36.172Z,14.33
2022-08-08T00:45:21.613Z,14.29
2022-08-08T00:51:21.035Z,14.28
2022-08-08T00:57:04.084Z,14.29
2022-08-08T01:04:00.871Z,14.23
2022-08-08T01:08:39.960Z,14.36
2022-08-08T01:14:16.563Z,14.23
2022-08-08T01:20:02.703Z,14.17
2022-08-08T01:26:05.835Z,14.20
2022-08-08T01:32:13.819Z,14.20
2022-08-08T01:37:58.373Z,14.06
2022-08-08T01:43:38.461Z,14.11
2022-08-08T01:48:58.206Z,14.10
2022-08-08T01:55:17.045Z,14.16
2022-08-08T02:00:02.263Z,14.21
2022-08-08T02:05:56.645Z,14.22
2022-08-08T02:11:23.602Z,14.01
2022-08-08T02:16:44.747Z,14.00
2022-08-08T02:22:13.253Z,13.91
2022-08-08T02:27:22.853Z,13.96
2022-08-08T02:32:40.926Z,13.99
2022-08-08T02:38:15.742Z,13.98
2022-08-08T02:44:42.531Z,13.94
2022-08-08T02:50:04.847Z,13.98
2022-08-08T02:55:25.161Z,14.08
2022-08-08T03:01:32.458Z,14.06
2022-08-08T03:07:26.824Z,14.12
2022-08-08T03:15:53.969Z,14.08
2022-08-08T03:19:01.580Z,14.15
2022-08-08T03:24:07.128Z,14.06
2022-08-08T03:29:20.868Z,14.00
2022-08-08T03:34:32.195Z,14.06
2022-08-08T03:39:52.098Z,14.01
2022-08-08T03:45:02.123Z,13.95
2022-08-08T03:50:27.702Z,13.92
2022-08-08T03:55:57.537Z,13.89
2022-08-08T04:01:02.839Z,14.08
2022-08-08T04:06:22.658Z,14.06
2022-08-08T04:11:28.466Z,14.24
2022-08-08T04:16:38.991Z,14.24
2022-08-08T04:21:46.758Z,14.37
2022-08-08T04:26:57.939Z,14.50
2022-08-08T04:32:02.812Z,14.58
2022-08-08T04:37:11.614Z,14.91
2022-08-08T04:42:18.010Z,14.97
2022-08-08T04:47:21.910Z,14.98
2022-08-08T04:52:34.039Z,15.18
2022-08-08T04:57:43.186Z,15.47
2022-08-08T05:02:47.315Z,15.64
2022-08-08T05:07:57.730Z,15.73
2022-08-08T05:13:03.757Z,16.42
2022-08-08T05:18:16.301Z,16.85
2022-08-08T05:23:21.404Z,16.84
2022-08-08T05:28:48.213Z,17.08
2022-08-08T05:33:50.587Z,17.14
2022-08-08T05:38:55.430Z,17.56
2022-08-08T05:44:07.371Z,17.63
2022-08-08T05:49:11.807Z,17.71
2022-08-08T05:54:28.284Z,17.83
2022-08-08T06:00:00.496Z,17.79
2022-08-08T06:05:33.822Z,18.44
2022-08-08T06:10:43.358Z,19.04
2022-08-08T06:15:53.505Z,20.69
2022-08-08T06:21:28.350Z,23.88
2022-08-08T06:26:50.268Z,25.02
2022-08-08T06:32:10.480Z,25.66
2022-08-08T06:37:25.572Z,27.29
2022-08-08T06:42:37.257Z,28.58
2022-08-08T06:47:52.464Z,28.63
2022-08-08T06:53:09.881Z,28.76
2022-08-08T06:58:22.698Z,29.74
2022-08-08T07:03:51.905Z,29.79
2022-08-08T07:09:06.170Z,30.08
2022-08-08T07:14:19.292Z,30.05
2022-08-08T07:19:34.481Z,28.52
2022-08-08T07:24:46.538Z,30.21
2022-08-08T07:30:02.069Z,30.55
2022-08-08T07:35:14.708Z,29.91
2022-08-08T07:40:29.470Z,29.24
2022-08-08T07:46:04.982Z,30.43
2022-08-08T07:51:04.230Z,31.31
2022-08-08T07:56:35.828Z,31.51
2022-08-08T08:02:36.323Z,31.29
2022-08-08T08:07:17.531Z,34.00
2022-08-08T08:12:31.414Z,33.83
2022-08-08T08:17:49.061Z,34.12
2022-08-08T08:23:00.736Z,32.81
2022-08-08T08:28:04.869Z,32.81
2022-08-08T08:33:13.355Z,32.71
2022-08-08T08:38:19.684Z,31.09
2022-08-08T08:43:32.894Z,28.67
2022-08-08T08:48:38.412Z,28.65
2022-08-08T08:54:00.890Z,29.61
2022-08-08T08:59:15.379Z,30.58
2022-08-08T09:04:37.927Z,29.88
2022-08-08T09:09:57.490Z,29.47
2022-08-08T09:15:37.200Z,28.57
2022-08-08T09:22:02.791Z,28.35
2022-08-08T09:26:17.299Z,26.81
2022-08-08T09:31:42.605Z,26.29
2022-08-08T09:37:46.281Z,25.38
2022-08-08T09:42:44.408Z,25.12
2022-08-08T09:48:09.847Z,25.36
2022-08-08T09:53:32.965Z,25.73
2022-08-08T09:58:57.816Z,25.53
2022-08-08T10:04:04.676Z,26.12
2022-08-08T10:09:08.807Z,26.18
2022-08-08T10:14:28.415Z,25.10
2022-08-08T10:19:46.149Z,25.53
2022-08-08T10:25:05.558Z,26.11
2022-08-08T10:30:16.169Z,26.35
2022-08-08T10:36:09.302Z,25.19
2022-08-08T10:41:05.031Z,26.80
2022-08-08T10:46:29.496Z,27.54
2022-08-08T10:51:47.554Z,27.67
2022-08-08T10:56:58.444Z,26.56
2022-08-08T11:02:04.805Z,26.51
2022-08-08T11:07:11.487Z,26.92
2022-08-08T11:12:38.371Z,27.13
2022-08-08T11:17:59.934Z,27.49
2022-08-08T11:23:06.384Z,27.97
2022-08-08T11:28:10.295Z,27.62
2022-08-08T11:33:15.314Z,26.71
2022-08-08T11:38:38.818Z,26.89
2022-08-08T11:43:45.618Z,27.45
2022-08-08T11:48:54.840Z,28.04
2022-08-08T11:54:01.159Z,27.73
2022-08-08T11:59:11.195Z,27.76
2022-08-08T12:04:16.743Z,27.65
2022-08-08T12:09:59.560Z,26.73
2022-08-08T12:15:03.234Z,28.06
2022-08-08T12:20:11.036Z,26.56
2022-08-08T12:25:29.783Z,26.11
2022-08-08T12:30:36.066Z,25.17
2022-08-08T12:35:52.436Z,25.79
2022-08-08T12:40:59.229Z,26.11
2022-08-08T12:46:19.201Z,25.84
2022-08-08T12:51:40.658Z,26.94
2022-08-08T12:56:54.332Z,26.32
2022-08-08T13:01:59.569Z,26.70
2022-08-08T13:07:06.852Z,26.12
2022-08-08T13:12:28.114Z,26.95
2022-08-08T13:18:09.716Z,27.42
2022-08-08T13:23:30.670Z,28.20
2022-08-08T13:28:32.306Z,27.90
2022-08-08T13:33:42.399Z,29.80
2022-08-08T13:38:47.868Z,28.31
2022-08-08T13:43:51.412Z,27.80
2022-08-08T13:50:33.200Z,27.08
2022-08-08T13:54:29.520Z,27.26
2022-08-08T13:59:39.209Z,28.37
2022-08-08T14:04:54.051Z,28.93
2022-08-08T14:10:05.636Z,29.02
2022-08-08T14:15:31.654Z,28.73
2022-08-08T14:20:56.989Z,29.61
2022-08-08T14:26:10.966Z,30.06
2022-08-08T14:31:20.409Z,30.97
2022-08-08T14:36:34.951Z,31.74
2022-08-08T14:41:45.555Z,32.60
2022-08-08T14:47:00.206Z,32.56
2022-08-08T14:52:09.149Z,32.99
2022-08-08T14:57:16.388Z,31.30
2022-08-08T15:02:25.686Z,29.66
2022-08-08T15:07:39.526Z,27.99
2022-08-08T15:12:47.394Z,28.36
2022-08-08T15:17:51.161Z,28.95
2022-08-08T15:22:54.541Z,29.98
2022-08-08T15:28:04.080Z,30.46
2022-08-08T15:33:35.531Z,27.97
2022-08-08T15:38:49.608Z,27.64
2022-08-08T15:44:00.681Z,28.52
2022-08-08T15:49:05.317Z,28.21
2022-08-08T15:54:18.750Z,26.91
2022-08-08T16:00:25.266Z,25.92
2022-08-08T16:04:58.446Z,25.41
2022-08-08T16:13:15.357Z,24.84
2022-08-08T16:15:27.437Z,24.26
2022-08-08T16:20:36.119Z,23.84
2022-08-08T16:25:45.945Z,23.73
2022-08-08T16:30:57.854Z,23.78
2022-08-08T16:36:01.826Z,23.59
2022-08-08T16:41:08.768Z,23.20
2022-08-08T16:46:36.445Z,23.17
2022-08-08T16:55:01.174Z,23.12
2022-08-08T16:57:22.863Z,22.98
2022-08-08T17:02:38.043Z,23.22
2022-08-08T17:07:42.678Z,23.42
2022-08-08T17:12:52.876Z,23.50
2022-08-08T17:18:02.563Z,23.37
2022-08-08T17:23:17.750Z,23.01
2022-08-08T17:28:35.479Z,22.70
2022-08-08T17:34:36.523Z,22.55
2022-08-08T17:39:45.937Z,22.15
2022-08-08T17:44:29.809Z,21.90
2022-08-08T17:49:42.847Z,21.78
2022-08-08T17:54:47.068Z,21.52
2022-08-08T18:00:02.415Z,21.26
2022-08-08T18:05:22.421Z,21.09
2022-08-08T18:10:31.752Z,20.93
2022-08-08T18:15:38.132Z,20.75
2022-08-08T18:20:54.779Z,20.61
2022-08-08T18:26:04.149Z,20.43
2022-08-08T18:31:08.600Z,20.22
2022-08-08T18:36:22.875Z,20.13
2022-08-08T18:41:51.855Z,19.95
2022-08-08T18:47:00.779Z,19.88
2022-08-08T18:52:06.137Z,19.72
2022-08-08T18:57:11.148Z,19.57
2022-08-08T19:02:27.816Z,19.52
2022-08-08T19:07:38.517Z,19.33
2022-08-08T19:13:20.694Z,19.29
2022-08-08T19:18:33.594Z,19.23
2022-08-08T19:23:53.458Z,19.03
2022-08-08T19:29:00.014Z,19.04
2022-08-08T19:34:35.562Z,18.89
2022-08-08T19:39:35.136Z,18.80
2022-08-08T19:44:45.393Z,18.76
2022-08-08T19:49:59.427Z,18.65
2022-08-08T19:55:08.955Z,18.59
2022-08-08T20:00:29.946Z,18.58
2022-08-08T20:06:14.820Z,18.38
2022-08-08T20:11:00.844Z,18.25
2022-08-08T20:16:04.984Z,18.15
2022-08-08T20:21:08.339Z,18.08
2022-08-08T20:26:16.086Z,18.01
2022-08-08T20:31:19.852Z,17.92
2022-08-08T20:36:25.086Z,17.85
2022-08-08T20:41:32.060Z,17.83
2022-08-08T20:46:37.750Z,17.80
2022-08-08T20:51:41.404Z,17.67
2022-08-08T20:57:16.216Z,17.67
2022-08-08T21:02:14.388Z,17.81
2022-08-08T21:07:47.747Z,17.95
2022-08-08T21:12:53.024Z,17.99
2022-08-08T21:17:57.967Z,17.96
2022-08-08T21:23:01.299Z,17.91
2022-08-08T21:28:16.070Z,17.74
2022-08-08T21:33:21.282Z,17.79
2022-08-08T21:38:25.506Z,17.67
2022-08-08T21:43:34.408Z,17.58
2022-08-08T21:48:41.822Z,17.56
2022-08-08T21:54:32.491Z,17.44
2022-08-08T21:59:15.186Z,17.34
2022-08-08T22:04:18.722Z,17.23
2022-08-08T22:09:26.902Z,17.20
2022-08-08T22:14:42.736Z,16.98
2022-08-08T22:20:10.576Z,16.99
2022-08-08T22:25:12.475Z,16.89
2022-08-08T22:30:30.189Z,16.89
2022-08-08T22:36:05.198Z,16.86
2022-08-08T22:40:57.465Z,16.89
2022-08-08T22:46:02.484Z,16.99
2022-08-08T22:51:07.444Z,16.85
2022-08-08T22:56:11.290Z,16.87
2022-08-08T23:02:02.129Z,16.84
2022-08-08T23:06:39.419Z,16.79
2022-08-08T23:12:28.502Z,16.71
2022-08-08T23:17:07.852Z,16.68
2022-08-08T23:22:11.547Z,16.49
2022-08-08T23:27:37.976Z,16.53
2022-08-08T23:32:44.101Z,16.39
2022-08-08T23:38:03.039Z,16.37
2022-08-08T23:43:07.056Z,16.35
2022-08-08T23:49:00.923Z,16.40
2022-08-08T23:54:06.430Z,16.21
2022-08-08T23:59:00.145Z,16.14
